createdAt,value
2019-05-11T00:00:30.287Z,100743.30
2019-05-11T00:05:34.729Z,100703.02
2019-05-11T00:10:39.165Z,100727.38
2019-05-11T00:15:43.525Z,100741.02
2019-05-11T00:20:47.941Z,100740.83
2019-05-11T00:25:52.387Z,100746.71
2019-05-11T00:30:56.921Z,100746.94
2019-05-11T00:36:01.790Z,100744.55
2019-05-11T00:41:06.220Z,100733.40
2019-05-11T00:46:10.614Z,100738.16
2019-05-11T00:51:14.894Z,100726.13
2019-05-11T00:56:19.323Z,100727.88
2019-05-11T01:01:24.192Z,100727.38
2019-05-11T01:06:28.481Z,100726.48
2019-05-11T01:11:32.847Z,100727.97
2019-05-11T01:16:37.118Z,100707.22
2019-05-11T01:21:41.526Z,100705.80
2019-05-11T01:26:45.961Z,100698.17
2019-05-11T01:31:50.241Z,100700.98
2019-05-11T01:36:54.494Z,100694.56
2019-05-11T01:41:58.744Z,100703.75
2019-05-11T01:47:02.984Z,100707.58
2019-05-11T01:52:07.259Z,100705.79
2019-05-11T01:57:11.676Z,100701.77
2019-05-11T02:02:15.945Z,100710.22
2019-05-11T02:07:20.349Z,100695.28
2019-05-11T02:12:24.609Z,100685.02
2019-05-11T02:17:29.001Z,100684.93
2019-05-11T02:22:33.264Z,100674.59
2019-05-11T02:27:37.696Z,100666.64
2019-05-11T02:33:00.884Z,100665.42
2019-05-11T02:38:05.232Z,100665.27
2019-05-11T02:43:09.479Z,100657.38
2019-05-11T02:48:13.728Z,100667.30
2019-05-11T02:53:18.569Z,100670.28
2019-05-11T02:58:22.796Z,100671.23
2019-05-11T03:03:27.037Z,100676.48
2019-05-11T03:08:31.266Z,100686.98
2019-05-11T03:13:35.491Z,100688.30
2019-05-11T03:18:39.721Z,100688.61
2019-05-11T03:23:43.957Z,100686.84
2019-05-11T03:28:48.189Z,100705.23
2019-05-11T03:33:52.433Z,100709.57
2019-05-11T03:38:56.680Z,100721.47
2019-05-11T03:44:00.931Z,100717.56
2019-05-11T03:49:05.179Z,100716.76
2019-05-11T03:54:09.408Z,100717.85
2019-05-11T03:59:13.653Z,100706.07
2019-05-11T04:04:17.884Z,100708.68
2019-05-11T04:09:22.129Z,100713.91
2019-05-11T04:14:26.382Z,100725.21
2019-05-11T04:19:30.719Z,100726.63
2019-05-11T04:24:34.979Z,100723.61
2019-05-11T04:29:39.440Z,100722.41
2019-05-11T04:34:43.782Z,100729.83
2019-05-11T04:39:48.169Z,100734.42
2019-05-11T04:44:52.759Z,100736.66
2019-05-11T04:49:57.158Z,100724.70
2019-05-11T04:55:01.394Z,100725.28
2019-05-11T05:00:06.469Z,100721.66
2019-05-11T05:05:10.919Z,100718.14
2019-05-11T05:10:19.854Z,100720.31
2019-05-11T05:15:21.287Z,100727.53
2019-05-11T05:20:25.532Z,100722.00
2019-05-11T05:25:29.966Z,100727.50
2019-05-11T05:30:34.505Z,100725.31
2019-05-11T05:35:38.751Z,100724.37
2019-05-11T05:40:42.992Z,100727.28
2019-05-11T05:45:47.335Z,100727.20
2019-05-11T05:50:51.567Z,100728.31
2019-05-11T05:55:55.801Z,100714.43
2019-05-11T06:01:00.136Z,100711.41
2019-05-11T06:06:04.369Z,100712.69
2019-05-11T06:11:08.648Z,100712.16
2019-05-11T06:16:12.880Z,100717.19
2019-05-11T06:21:17.106Z,100729.48
2019-05-11T06:26:21.340Z,100725.13
2019-05-11T06:31:25.587Z,100735.40
2019-05-11T06:36:29.821Z,100738.30
2019-05-11T06:41:34.227Z,100737.88
2019-05-11T06:46:38.629Z,100736.59
2019-05-11T06:51:42.857Z,100739.69
2019-05-11T06:56:47.210Z,100727.16
2019-05-11T07:01:51.546Z,100723.98
2019-05-11T07:06:55.835Z,100722.59
2019-05-11T07:12:00.131Z,100717.56
2019-05-11T07:17:04.491Z,100714.31
2019-05-11T07:22:08.723Z,100701.86
2019-05-11T07:27:13.052Z,100704.10
2019-05-11T07:32:25.108Z,100699.33
2019-05-11T07:37:24.326Z,100697.29
2019-05-11T07:42:28.861Z,100696.56
2019-05-11T07:47:33.261Z,100703.23
2019-05-11T07:52:37.972Z,100706.69
2019-05-11T07:57:42.399Z,100701.74
2019-05-11T08:02:48.030Z,100695.59
2019-05-11T08:07:52.407Z,100688.59
2019-05-11T08:12:58.749Z,100683.08
2019-05-11T08:18:02.649Z,100683.38
2019-05-11T08:23:08.986Z,100680.77
2019-05-11T08:28:12.923Z,100685.31
2019-05-11T08:33:18.155Z,100679.22
2019-05-11T08:38:22.628Z,100671.95
2019-05-11T08:43:28.521Z,100675.99
2019-05-11T08:48:32.906Z,100674.20
2019-05-11T08:53:38.700Z,100674.48
2019-05-11T08:58:43.200Z,100677.55
2019-05-11T09:03:48.027Z,100664.88
2019-05-11T09:08:52.235Z,100677.45
2019-05-11T09:13:57.872Z,100673.59
2019-05-11T09:19:02.377Z,100666.83
2019-05-11T09:24:08.412Z,100669.27
2019-05-11T09:29:12.622Z,100656.73
2019-05-11T09:34:18.078Z,100667.03
2019-05-11T09:39:22.559Z,100671.94
2019-05-11T09:44:28.798Z,100663.86
2019-05-11T09:49:43.967Z,100663.04
2019-05-11T09:54:38.768Z,100668.14
2019-05-11T09:59:43.099Z,100663.29
2019-05-11T10:04:48.401Z,100668.45
2019-05-11T10:09:52.724Z,100659.80
2019-05-11T10:14:59.085Z,100665.21
2019-05-11T10:20:03.066Z,100664.93
2019-05-11T10:25:08.998Z,100668.72
2019-05-11T10:30:13.703Z,100661.70
2019-05-11T10:35:18.537Z,100666.30
2019-05-11T10:40:22.974Z,100668.47
2019-05-11T10:45:28.561Z,100664.41
2019-05-11T10:50:32.949Z,100665.23
2019-05-11T10:55:38.621Z,100664.63
2019-05-11T11:00:43.176Z,100653.23
2019-05-11T11:05:48.788Z,100660.03
2019-05-11T11:10:53.205Z,100660.27
2019-05-11T11:15:59.020Z,100657.93
2019-05-11T11:21:03.436Z,100660.16
2019-05-11T11:26:08.328Z,100655.74
2019-05-11T11:31:12.647Z,100650.37
2019-05-11T11:36:17.962Z,100655.34
2019-05-11T11:41:22.332Z,100650.28
2019-05-11T11:46:27.800Z,100655.12
2019-05-11T11:51:32.106Z,100651.30
2019-05-11T11:56:38.004Z,100654.02
2019-05-11T12:01:43.732Z,100652.72
2019-05-11T12:06:49.094Z,100657.02
2019-05-11T12:11:53.428Z,100655.99
2019-05-11T12:17:06.988Z,100654.54
2019-05-11T12:22:03.652Z,100660.03
2019-05-11T12:27:07.894Z,100663.58
2019-05-11T12:32:18.579Z,100667.91
2019-05-11T12:37:22.920Z,100671.66
2019-05-11T12:42:28.419Z,100665.11
2019-05-11T12:47:32.700Z,100637.15
2019-05-11T12:52:38.334Z,100668.25
2019-05-11T12:57:42.695Z,100665.17
2019-05-11T13:02:48.509Z,100671.89
2019-05-11T13:07:52.998Z,100668.42
2019-05-11T13:12:58.171Z,100672.23
2019-05-11T13:18:02.592Z,100676.72
2019-05-11T13:23:07.992Z,100678.05
2019-05-11T13:28:12.466Z,100677.36
2019-05-11T13:33:18.788Z,100686.62
2019-05-11T13:38:22.805Z,100688.45
2019-05-11T13:43:28.057Z,100690.63
2019-05-11T13:48:32.598Z,100689.55
2019-05-11T13:53:37.643Z,100691.11
2019-05-11T13:58:42.498Z,100693.53
2019-05-11T14:03:48.438Z,100698.83
2019-05-11T14:08:52.720Z,100708.72
2019-05-11T14:13:58.463Z,100714.07
2019-05-11T14:19:02.817Z,100716.27
2019-05-11T14:24:07.781Z,100725.67
2019-05-11T14:29:12.307Z,100722.71
2019-05-11T14:34:18.124Z,100730.52
2019-05-11T14:39:23.109Z,100732.45
2019-05-11T14:44:28.541Z,100738.82
2019-05-11T14:49:33.002Z,100748.75
2019-05-11T14:54:38.211Z,100750.55
2019-05-11T14:59:42.680Z,100753.02
2019-05-11T15:04:48.391Z,100753.19
2019-05-11T15:09:52.795Z,100763.69
2019-05-11T15:14:59.025Z,100765.65
2019-05-11T15:20:03.047Z,100772.42
2019-05-11T15:25:08.972Z,100779.91
2019-05-11T15:30:14.959Z,100783.27
2019-05-11T15:35:19.269Z,100789.48
2019-05-11T15:40:23.908Z,100790.61
2019-05-11T15:45:28.238Z,100794.08
2019-05-11T15:50:32.474Z,100806.24
2019-05-11T15:55:39.362Z,100804.77
2019-05-11T16:00:42.703Z,100818.14
2019-05-11T16:05:47.934Z,100827.46
2019-05-11T16:10:52.299Z,100830.12
2019-05-11T16:15:57.761Z,100829.02
2019-05-11T16:21:02.315Z,100848.48
2019-05-11T16:26:08.539Z,100854.19
2019-05-11T16:31:12.525Z,100853.82
2019-05-11T16:36:17.981Z,100850.86
2019-05-11T16:41:22.486Z,100842.85
2019-05-11T16:46:28.440Z,100845.19
2019-05-11T16:51:32.862Z,100848.23
2019-05-11T16:56:38.254Z,100819.69
2019-05-11T17:01:42.788Z,100847.00
2019-05-11T17:06:48.679Z,100863.03
2019-05-11T17:11:53.138Z,100886.92
2019-05-11T17:16:58.557Z,100889.80
2019-05-11T17:22:02.931Z,100884.75
2019-05-11T17:27:08.813Z,100875.03
2019-05-11T17:32:17.761Z,100868.17
2019-05-11T17:37:22.212Z,100896.88
2019-05-11T17:42:26.499Z,100920.81
2019-05-11T17:47:30.793Z,100935.94
2019-05-11T17:52:35.105Z,100969.90
2019-05-11T17:57:39.359Z,100954.88
2019-05-11T18:02:43.650Z,100942.70
2019-05-11T18:07:47.945Z,100958.45
2019-05-11T18:12:52.340Z,100962.20
2019-05-11T18:17:58.798Z,100970.65
2019-05-11T18:23:03.112Z,100980.53
2019-05-11T18:28:07.570Z,100995.77
2019-05-11T18:33:12.010Z,101005.47
2019-05-11T18:38:17.847Z,101004.94
2019-05-11T18:43:22.257Z,101014.32
2019-05-11T18:48:28.665Z,101023.13
2019-05-11T18:53:32.609Z,101035.37
2019-05-11T18:58:38.355Z,101043.08
2019-05-11T19:03:42.809Z,101052.25
2019-05-11T19:08:47.880Z,101055.66
2019-05-11T19:13:53.286Z,101067.09
2019-05-11T19:18:58.607Z,101072.31
2019-05-11T19:24:06.032Z,101090.91
2019-05-11T19:29:10.036Z,101109.58
2019-05-11T19:34:14.516Z,101125.31
2019-05-11T19:39:19.402Z,101137.18
2019-05-11T19:44:23.941Z,101148.73
2019-05-11T19:49:28.287Z,101156.13
2019-05-11T19:54:32.588Z,101158.05
2019-05-11T19:59:38.703Z,101159.75
2019-05-11T20:04:43.260Z,101167.43
2019-05-11T20:09:47.573Z,101175.78
2019-05-11T20:14:51.845Z,101177.62
2019-05-11T20:19:58.117Z,101181.59
2019-05-11T20:25:02.258Z,101181.77
2019-05-11T20:30:08.601Z,101181.64
2019-05-11T20:35:13.544Z,101180.56
2019-05-11T20:40:18.463Z,101192.43
2019-05-11T20:45:23.017Z,101199.26
2019-05-11T20:50:27.289Z,101207.73
2019-05-11T20:55:31.542Z,101214.16
2019-05-11T21:00:38.199Z,101221.55
2019-05-11T21:05:41.980Z,101223.01
2019-05-11T21:10:48.790Z,101236.84
2019-05-11T21:15:52.426Z,101250.98
2019-05-11T21:20:57.713Z,101269.97
2019-05-11T21:26:02.138Z,101270.30
2019-05-11T21:31:08.046Z,101266.00
2019-05-11T21:36:12.538Z,101275.70
2019-05-11T21:41:16.806Z,101280.65
2019-05-11T21:46:21.069Z,101291.36
2019-05-11T21:51:25.494Z,101301.66
2019-05-11T21:56:29.946Z,101313.55
2019-05-11T22:01:34.381Z,101327.97
2019-05-11T22:06:39.209Z,101339.31
2019-05-11T22:11:43.587Z,101341.08
2019-05-11T22:16:48.077Z,101345.03
2019-05-11T22:21:52.316Z,101328.22
2019-05-11T22:26:57.487Z,101341.47
2019-05-11T22:32:02.518Z,101346.19
2019-05-11T22:37:08.654Z,101351.86
2019-05-11T22:42:12.754Z,101364.05
2019-05-11T22:47:17.811Z,101365.06
2019-05-11T22:52:35.430Z,101381.94
2019-05-11T22:57:28.277Z,101385.87
2019-05-11T23:02:32.517Z,101389.89
2019-05-11T23:07:37.673Z,101392.98
2019-05-11T23:12:42.734Z,101401.22
2019-05-11T23:17:46.972Z,101405.88
2019-05-11T23:22:58.017Z,101413.27
2019-05-11T23:27:58.811Z,101417.49
2019-05-11T23:33:03.132Z,101435.30
2019-05-11T23:38:07.374Z,101437.37
2019-05-11T23:43:11.608Z,101431.59
2019-05-11T23:48:15.835Z,101438.67
2019-05-11T23:53:20.069Z,101428.12
2019-05-11T23:58:24.287Z,101435.33
